createdAt,value
2022-10-29T00:02:37.627Z,15.46
2022-10-29T00:05:44.683Z,15.51
2022-10-29T00:08:51.714Z,15.46
2022-10-29T00:11:59.075Z,15.35
2022-10-29T00:15:06.753Z,15.27
2022-10-29T00:18:14.434Z,15.19
2022-10-29T00:21:21.925Z,15.09
2022-10-29T00:24:29.638Z,15.08
2022-10-29T00:27:36.712Z,15.03
2022-10-29T00:30:43.872Z,14.98
2022-10-29T00:33:51.461Z,14.98
2022-10-29T00:36:58.470Z,14.98
2022-10-29T00:40:01.674Z,14.94
2022-10-29T00:43:09.337Z,14.94
2022-10-29T00:46:16.144Z,14.91
2022-10-29T00:49:23.591Z,14.90
2022-10-29T00:52:31.270Z,14.93
2022-10-29T00:55:38.419Z,14.99
2022-10-29T00:58:45.476Z,15.05
2022-10-29T01:01:52.863Z,15.11
2022-10-29T01:05:00.248Z,15.15
2022-10-29T01:08:07.500Z,15.19
2022-10-29T01:11:14.770Z,15.26
2022-10-29T01:14:21.939Z,15.27
2022-10-29T01:17:29.528Z,15.31
2022-10-29T01:20:36.714Z,15.33
2022-10-29T01:23:44.289Z,15.36
2022-10-29T01:26:51.355Z,15.38
2022-10-29T01:29:58.878Z,15.33
2022-10-29T01:33:06.198Z,15.27
2022-10-29T01:36:13.750Z,15.24
2022-10-29T01:39:21.448Z,15.17
2022-10-29T01:42:28.780Z,15.09
2022-10-29T01:45:36.142Z,15.02
2022-10-29T01:48:44.113Z,14.95
2022-10-29T01:51:50.903Z,15.02
2022-10-29T01:54:58.813Z,15.01
2022-10-29T01:58:06.519Z,14.94
2022-10-29T02:01:13.871Z,14.84
2022-10-29T02:04:21.618Z,14.71
2022-10-29T02:07:29.604Z,14.65
2022-10-29T02:10:36.753Z,14.57
2022-10-29T02:13:44.851Z,14.53
2022-10-29T02:16:52.153Z,14.47
2022-10-29T02:19:59.461Z,14.43
2022-10-29T02:23:07.200Z,14.43
2022-10-29T02:26:14.606Z,14.47
2022-10-29T02:29:22.182Z,14.47
2022-10-29T02:32:30.025Z,14.50
2022-10-29T02:35:37.324Z,14.52
2022-10-29T02:38:44.805Z,14.53
2022-10-29T02:41:52.100Z,14.52
2022-10-29T02:44:59.904Z,14.53
2022-10-29T02:48:07.467Z,14.54
2022-10-29T02:51:14.405Z,14.56
2022-10-29T02:54:21.650Z,14.54
2022-10-29T02:57:28.760Z,14.57
2022-10-29T03:00:36.085Z,14.64
2022-10-29T03:03:43.852Z,14.68
2022-10-29T03:06:50.693Z,14.69
2022-10-29T03:09:58.343Z,14.64
2022-10-29T03:13:05.462Z,14.57
2022-10-29T03:16:12.194Z,14.56
2022-10-29T03:19:19.544Z,14.53
2022-10-29T03:22:26.997Z,14.47
2022-10-29T03:25:34.408Z,14.38
2022-10-29T03:28:42.064Z,14.28
2022-10-29T03:31:48.872Z,14.19
2022-10-29T03:34:59.815Z,14.12
2022-10-29T03:37:56.955Z,14.07
2022-10-29T03:41:03.795Z,14.04
2022-10-29T03:44:11.441Z,13.99
2022-10-29T03:47:19.204Z,13.98
2022-10-29T03:50:25.956Z,13.92
2022-10-29T03:53:33.227Z,13.94
2022-10-29T03:56:40.759Z,13.94
2022-10-29T03:59:49.992Z,13.91
2022-10-29T04:02:49.069Z,13.87
2022-10-29T04:05:56.032Z,13.81
2022-10-29T04:09:03.452Z,13.73
2022-10-29T04:12:11.032Z,13.67
2022-10-29T04:15:18.535Z,13.65
2022-10-29T04:18:25.762Z,13.61
2022-10-29T04:28:36.927Z,13.52
2022-10-29T04:30:46.118Z,13.56
2022-10-29T04:33:53.527Z,13.56
2022-10-29T04:37:00.712Z,13.62
2022-10-29T04:40:07.979Z,13.62
2022-10-29T04:43:15.889Z,13.65
2022-10-29T04:46:23.173Z,13.63
2022-10-29T04:49:30.400Z,13.61
2022-10-29T04:52:37.924Z,13.56
2022-10-29T04:55:44.753Z,13.58
2022-10-29T04:58:52.270Z,13.59
2022-10-29T05:01:59.847Z,13.61
2022-10-29T05:05:07.655Z,13.55
2022-10-29T05:08:14.928Z,13.46
2022-10-29T05:11:21.956Z,13.43
2022-10-29T05:14:29.169Z,13.37
2022-10-29T05:17:36.328Z,13.33
2022-10-29T05:20:43.649Z,13.36
2022-10-29T05:23:50.932Z,13.41
2022-10-29T05:26:57.943Z,13.38
2022-10-29T05:30:04.836Z,13.30
2022-10-29T05:33:12.100Z,13.30
2022-10-29T05:36:18.962Z,13.29
2022-10-29T05:39:26.304Z,13.24
2022-10-29T05:42:33.445Z,13.25
2022-10-29T05:45:40.785Z,13.25
2022-10-29T05:48:48.461Z,13.20
2022-10-29T05:51:55.753Z,13.14
2022-10-29T05:55:03.128Z,13.09
2022-10-29T05:58:10.980Z,13.04
2022-10-29T06:01:18.668Z,13.06
2022-10-29T06:04:26.042Z,13.04
2022-10-29T06:07:33.862Z,13.11
2022-10-29T06:10:40.781Z,13.11
2022-10-29T06:13:48.254Z,13.11
2022-10-29T06:16:55.630Z,13.11
2022-10-29T06:20:02.516Z,13.17
2022-10-29T06:23:10.366Z,13.24
2022-10-29T06:26:18.087Z,13.27
2022-10-29T06:29:24.979Z,13.30
2022-10-29T06:32:32.770Z,13.32
2022-10-29T06:35:40.024Z,13.36
2022-10-29T06:38:47.109Z,13.41
2022-10-29T06:41:54.616Z,13.47
2022-10-29T06:45:01.861Z,13.59
2022-10-29T06:48:09.081Z,13.73
2022-10-29T06:51:16.655Z,13.83
2022-10-29T06:54:23.979Z,13.95
2022-10-29T06:57:31.387Z,14.13
2022-10-29T07:00:38.601Z,14.29
2022-10-29T07:03:45.944Z,14.42
2022-10-29T07:06:53.213Z,14.52
2022-10-29T07:10:00.260Z,14.61
2022-10-29T07:13:07.411Z,14.69
2022-10-29T07:16:14.750Z,14.80
2022-10-29T07:19:21.786Z,14.87
2022-10-29T07:22:34.669Z,14.91
2022-10-29T07:25:31.030Z,14.98
2022-10-29T07:28:38.386Z,15.02
2022-10-29T07:31:46.079Z,15.08
2022-10-29T07:34:52.806Z,15.15
2022-10-29T07:38:05.087Z,15.20
2022-10-29T07:41:04.309Z,15.28
2022-10-29T07:44:11.097Z,15.36
2022-10-29T07:47:18.812Z,15.42
2022-10-29T07:50:25.602Z,15.45
2022-10-29T07:53:33.460Z,15.48
2022-10-29T07:56:45.103Z,15.51
2022-10-29T07:59:43.938Z,15.54
2022-10-29T08:02:51.493Z,15.59
2022-10-29T08:05:59.381Z,15.61
2022-10-29T08:09:06.956Z,15.64
2022-10-29T08:12:14.478Z,15.72
2022-10-29T08:15:21.888Z,15.72
2022-10-29T08:18:29.536Z,15.72
2022-10-29T08:21:36.873Z,15.74
2022-10-29T08:24:44.518Z,15.78
2022-10-29T08:31:00.136Z,15.97
2022-10-29T08:34:11.050Z,16.07
2022-10-29T08:37:08.836Z,16.18
2022-10-29T08:40:16.068Z,16.27
2022-10-29T08:43:24.199Z,16.33
2022-10-29T08:46:31.857Z,16.34
2022-10-29T08:49:39.047Z,16.34
2022-10-29T08:52:53.259Z,16.38
2022-10-29T08:55:51.020Z,16.48
2022-10-29T08:58:58.779Z,16.60
2022-10-29T09:02:06.733Z,16.75
2022-10-29T09:05:13.837Z,16.90
2022-10-29T09:08:21.663Z,17.04
2022-10-29T09:11:29.014Z,17.20
2022-10-29T09:14:35.706Z,17.25
2022-10-29T09:17:43.162Z,17.32
2022-10-29T09:20:50.186Z,17.40
2022-10-29T09:23:57.338Z,17.43
2022-10-29T09:27:08.185Z,17.44
2022-10-29T09:30:06.895Z,17.50
2022-10-29T09:33:14.634Z,17.55
2022-10-29T09:36:22.260Z,17.62
2022-10-29T09:39:33.906Z,17.67
2022-10-29T09:42:31.334Z,17.73
2022-10-29T09:45:38.215Z,17.79
2022-10-29T09:48:45.068Z,17.87
2022-10-29T09:51:52.560Z,17.97
2022-10-29T09:54:59.920Z,18.02
2022-10-29T09:58:07.019Z,18.06
2022-10-29T10:01:14.289Z,18.10
2022-10-29T10:04:21.556Z,18.21
2022-10-29T10:07:28.842Z,18.31
2022-10-29T10:10:36.094Z,18.44
2022-10-29T10:13:43.475Z,18.54
2022-10-29T10:16:50.756Z,18.67
2022-10-29T10:19:58.291Z,18.74
2022-10-29T10:23:05.579Z,18.82
2022-10-29T10:26:12.797Z,18.94
2022-10-29T10:29:20.373Z,19.08
2022-10-29T10:32:27.610Z,19.14
2022-10-29T10:33:24.320Z,19.13
2022-10-29T10:36:22.602Z,19.10
2022-10-29T10:39:30.161Z,19.05
2022-10-29T10:42:37.511Z,19.10
2022-10-29T10:45:44.672Z,19.10
2022-10-29T10:48:52.041Z,19.13
2022-10-29T10:51:59.785Z,19.18
2022-10-29T10:55:07.106Z,19.21
2022-10-29T10:58:14.376Z,19.23
2022-10-29T11:01:21.740Z,19.24
2022-10-29T11:04:28.946Z,19.24
2022-10-29T11:07:36.809Z,19.23
2022-10-29T11:10:43.984Z,19.28
2022-10-29T11:13:50.762Z,19.35
2022-10-29T11:16:57.734Z,19.43
2022-10-29T11:20:04.874Z,19.46
2022-10-29T11:23:12.642Z,19.51
2022-10-29T11:26:19.905Z,19.58
2022-10-29T11:29:27.129Z,19.63
2022-10-29T11:32:34.409Z,19.65
2022-10-29T11:35:41.728Z,19.66
2022-10-29T11:38:49.211Z,19.68
2022-10-29T11:41:56.458Z,19.65
2022-10-29T11:45:03.913Z,19.58
2022-10-29T11:48:11.304Z,19.57
2022-10-29T11:51:18.834Z,19.55
2022-10-29T11:54:25.887Z,19.58
2022-10-29T11:57:32.898Z,19.66
2022-10-29T12:00:40.352Z,19.79
2022-10-29T12:03:47.663Z,19.95
2022-10-29T12:06:55.192Z,20.15
2022-10-29T12:10:01.931Z,20.33
2022-10-29T12:13:09.637Z,20.46
2022-10-29T12:16:16.832Z,20.59
2022-10-29T12:19:24.156Z,20.74
2022-10-29T12:22:32.018Z,20.86
2022-10-29T12:25:38.912Z,20.86
2022-10-29T12:28:46.870Z,20.86
2022-10-29T12:31:54.198Z,20.90
2022-10-29T12:35:01.398Z,21.02
2022-10-29T12:38:09.143Z,21.08
2022-10-29T12:41:15.903Z,21.13
2022-10-29T12:44:23.202Z,21.19
2022-10-29T12:47:31.148Z,21.19
2022-10-29T12:50:38.018Z,21.21
2022-10-29T12:53:46.259Z,21.23
2022-10-29T12:56:53.078Z,21.21
2022-10-29T13:00:00.642Z,21.17
2022-10-29T13:03:08.785Z,21.11
2022-10-29T13:06:15.625Z,21.02
2022-10-29T13:09:23.276Z,20.98
2022-10-29T13:12:30.073Z,20.95
2022-10-29T13:15:38.028Z,20.93
2022-10-29T13:18:45.363Z,20.98
2022-10-29T13:21:52.567Z,20.99
2022-10-29T13:25:00.131Z,20.99
2022-10-29T13:28:06.810Z,21.02
2022-10-29T13:31:14.236Z,20.99
2022-10-29T13:34:21.305Z,20.98
2022-10-29T13:37:28.617Z,20.93
2022-10-29T13:40:36.224Z,20.89
2022-10-29T13:43:42.945Z,20.86
2022-10-29T13:46:50.626Z,20.81
2022-10-29T13:49:58.044Z,20.74
2022-10-29T13:53:10.628Z,20.72
2022-10-29T13:56:08.840Z,20.68
2022-10-29T13:59:16.720Z,20.68
2022-10-29T14:02:24.219Z,20.65
2022-10-29T14:05:31.393Z,20.62
2022-10-29T14:08:39.013Z,20.61
2022-10-29T14:11:46.516Z,20.56
2022-10-29T14:14:54.866Z,20.50
2022-10-29T14:18:02.525Z,20.43
2022-10-29T14:21:10.118Z,20.35
2022-10-29T14:24:17.709Z,20.27
2022-10-29T14:27:25.162Z,20.20
2022-10-29T14:30:32.890Z,20.18
2022-10-29T14:33:40.096Z,20.13
2022-10-29T14:36:48.346Z,20.09
2022-10-29T14:39:58.271Z,20.09
2022-10-29T14:42:55.904Z,20.03
2022-10-29T14:46:04.249Z,20.02
2022-10-29T14:49:11.180Z,19.95
2022-10-29T14:52:19.281Z,19.94
2022-10-29T14:55:26.816Z,19.91
2022-10-29T14:58:34.341Z,19.87
2022-10-29T15:01:42.506Z,19.79
2022-10-29T15:04:49.789Z,19.75
2022-10-29T15:07:57.835Z,19.69
2022-10-29T15:11:05.450Z,19.51
2022-10-29T15:14:12.643Z,19.31
2022-10-29T15:17:20.669Z,19.17
2022-10-29T15:20:27.558Z,19.06
2022-10-29T15:23:35.158Z,18.94
2022-10-29T15:26:42.549Z,18.86
2022-10-29T15:29:50.056Z,18.79
2022-10-29T15:32:58.020Z,18.68
2022-10-29T15:36:05.946Z,18.62
2022-10-29T15:39:13.902Z,18.52
2022-10-29T15:42:23.004Z,18.44
2022-10-29T15:45:30.391Z,18.37
2022-10-29T15:48:37.792Z,18.22
2022-10-29T15:51:45.207Z,18.12
2022-10-29T15:54:52.876Z,17.92
2022-10-29T15:58:00.444Z,17.81
2022-10-29T16:01:07.926Z,17.66
2022-10-29T16:04:15.049Z,17.55
2022-10-29T16:07:23.578Z,17.44
2022-10-29T16:10:30.472Z,17.23
2022-10-29T16:13:38.935Z,17.07
2022-10-29T16:16:46.604Z,16.95
2022-10-29T16:19:54.294Z,16.88
2022-10-29T16:23:02.366Z,16.80
2022-10-29T16:26:09.556Z,16.67
2022-10-29T16:29:17.660Z,16.59
2022-10-29T16:32:24.930Z,16.48
2022-10-29T16:35:36.159Z,16.41
2022-10-29T16:38:43.793Z,16.37
2022-10-29T16:41:50.751Z,16.33
2022-10-29T16:44:59.843Z,16.30
2022-10-29T16:48:07.637Z,16.26
2022-10-29T16:51:14.340Z,16.23
2022-10-29T16:54:21.985Z,16.23
2022-10-29T16:57:29.335Z,16.16
2022-10-29T17:00:36.805Z,16.16
2022-10-29T17:03:44.552Z,16.12
2022-10-29T17:06:51.316Z,16.07
2022-10-29T17:10:00.094Z,16.04
2022-10-29T17:13:07.392Z,16.00
2022-10-29T17:16:14.993Z,16.01
2022-10-29T17:19:22.802Z,16.01
2022-10-29T17:22:29.535Z,16.01
2022-10-29T17:25:37.344Z,16.00
2022-10-29T17:28:44.862Z,16.01
2022-10-29T17:31:52.501Z,16.00
2022-10-29T17:35:00.026Z,16.09
2022-10-29T17:38:06.939Z,16.09
2022-10-29T17:41:14.634Z,16.09
2022-10-29T17:44:22.556Z,16.12
2022-10-29T17:47:46.330Z,16.22
2022-10-29T17:50:47.399Z,16.22
2022-10-29T17:53:54.846Z,16.22
2022-10-29T17:57:02.280Z,16.15
2022-10-29T18:00:09.894Z,16.15
2022-10-29T18:03:17.999Z,16.09
2022-10-29T18:06:27.156Z,16.06
2022-10-29T18:09:35.714Z,16.11
2022-10-29T18:12:44.085Z,16.12
2022-10-29T18:15:52.773Z,16.07
2022-10-29T18:19:10.800Z,16.04
2022-10-29T18:22:09.558Z,16.01
2022-10-29T18:25:12.513Z,16.00
2022-10-29T18:28:16.722Z,16.01
2022-10-29T18:31:26.189Z,16.00
2022-10-29T18:34:35.435Z,16.00
2022-10-29T18:37:45.998Z,15.97
2022-10-29T18:40:56.080Z,15.92
2022-10-29T18:44:06.422Z,15.86
2022-10-29T18:47:15.170Z,15.84
2022-10-29T18:50:15.577Z,15.76
2022-10-29T18:53:22.924Z,15.78
2022-10-29T18:56:21.539Z,15.76
2022-10-29T18:59:29.699Z,15.72
2022-10-29T19:02:31.369Z,15.72
2022-10-29T19:04:05.166Z,15.74
2022-10-29T19:04:51.001Z,15.75
2022-10-29T19:05:35.945Z,15.72
2022-10-29T19:06:19.100Z,15.72
2022-10-29T19:09:24.185Z,15.75
2022-10-29T19:12:33.482Z,15.75
2022-10-29T19:15:02.373Z,15.79
2022-10-29T19:15:45.517Z,15.79
2022-10-29T19:18:55.398Z,15.81
2022-10-29T19:22:03.692Z,15.81
2022-10-29T19:25:12.220Z,15.86
2022-10-29T19:28:11.834Z,15.86
2022-10-29T19:31:19.825Z,15.84
2022-10-29T19:34:27.645Z,15.81
2022-10-29T19:37:35.338Z,15.75
2022-10-29T19:40:42.887Z,15.78
2022-10-29T19:43:50.630Z,15.79
2022-10-29T19:46:57.942Z,15.78
2022-10-29T19:50:05.560Z,15.84
2022-10-29T19:53:13.320Z,15.85
2022-10-29T19:56:20.436Z,15.86
2022-10-29T19:59:28.065Z,15.86
2022-10-29T20:02:34.974Z,15.85
2022-10-29T20:05:42.222Z,15.85
2022-10-29T20:08:49.719Z,15.84
2022-10-29T20:11:56.604Z,15.85
2022-10-29T20:15:03.976Z,15.81
2022-10-29T20:18:10.821Z,15.82
2022-10-29T20:21:18.002Z,15.81
2022-10-29T20:24:25.461Z,15.78
2022-10-29T20:27:32.935Z,15.75
2022-10-29T20:30:39.872Z,15.72
2022-10-29T20:33:47.204Z,15.68
2022-10-29T20:36:54.342Z,15.66
2022-10-29T20:40:01.506Z,15.64
2022-10-29T20:43:09.154Z,15.61
2022-10-29T20:46:16.057Z,15.61
2022-10-29T20:49:23.211Z,15.61
2022-10-29T20:52:30.769Z,15.57
2022-10-29T20:55:37.910Z,15.49
2022-10-29T20:58:45.114Z,15.45
2022-10-29T21:01:52.030Z,15.45
2022-10-29T21:04:59.575Z,15.45
2022-10-29T21:08:06.276Z,15.43
2022-10-29T21:11:13.238Z,15.39
2022-10-29T21:14:20.833Z,15.36
2022-10-29T21:17:27.946Z,15.35
2022-10-29T21:20:34.907Z,15.31
2022-10-29T21:23:42.196Z,15.26
2022-10-29T21:26:48.988Z,15.24
2022-10-29T21:29:56.439Z,15.21
2022-10-29T21:33:03.625Z,15.15
2022-10-29T21:36:10.924Z,15.06
2022-10-29T21:39:18.595Z,15.03
2022-10-29T21:42:25.517Z,15.01
2022-10-29T21:45:32.452Z,14.93
2022-10-29T21:48:39.964Z,14.91
2022-10-29T21:51:46.668Z,14.91
2022-10-29T21:54:54.059Z,14.87
2022-10-29T21:58:01.261Z,14.86
2022-10-29T22:01:08.290Z,14.80
2022-10-29T22:04:15.300Z,14.74
2022-10-29T22:07:22.712Z,14.69
2022-10-29T22:10:29.593Z,14.71
2022-10-29T22:13:36.815Z,14.81
2022-10-29T22:16:43.899Z,14.94
2022-10-29T22:19:51.696Z,15.06
2022-10-29T22:22:59.612Z,15.17
2022-10-29T22:26:06.840Z,15.26
2022-10-29T22:29:13.974Z,15.33
2022-10-29T22:32:21.003Z,15.28
2022-10-29T22:35:28.120Z,15.31
2022-10-29T22:38:35.652Z,15.30
2022-10-29T22:41:42.690Z,15.26
2022-10-29T22:44:49.757Z,15.23
2022-10-29T22:47:57.139Z,15.15
2022-10-29T22:51:03.813Z,15.08
2022-10-29T22:54:11.388Z,15.06
2022-10-29T22:57:18.856Z,15.02
2022-10-29T23:00:25.632Z,15.01
2022-10-29T23:03:33.041Z,14.98
2022-10-29T23:06:40.401Z,14.94
2022-10-29T23:09:47.132Z,14.90
2022-10-29T23:12:54.657Z,14.87
2022-10-29T23:16:01.677Z,14.87
2022-10-29T23:19:08.731Z,14.84
2022-10-29T23:22:16.449Z,14.83
2022-10-29T23:25:23.760Z,14.80
2022-10-29T23:28:30.952Z,14.81
2022-10-29T23:31:38.421Z,14.81
2022-10-29T23:34:45.430Z,14.81
2022-10-29T23:37:52.817Z,14.83
2022-10-29T23:40:59.990Z,14.88
2022-10-29T23:44:07.244Z,14.91
2022-10-29T23:47:14.469Z,14.98
2022-10-29T23:50:21.649Z,14.99
2022-10-29T23:53:28.762Z,14.99
2022-10-29T23:56:35.842Z,15.01
2022-10-29T23:59:42.861Z,15.02
